createdAt,value
2023-05-16T00:04:07.703Z,102044.13
2023-05-16T00:12:05.736Z,102060.75
2023-05-16T00:17:43.127Z,102068.56
2023-05-16T00:23:33.841Z,102063.84
2023-05-16T00:26:33.568Z,102062.97
2023-05-16T00:32:22.791Z,102056.94
2023-05-16T00:35:24.312Z,102067.72
2023-05-16T00:37:51.959Z,102058.69
2023-05-16T00:40:21.388Z,102061.06
2023-05-16T00:42:51.495Z,102061.34
2023-05-16T00:45:22.044Z,102064.31
2023-05-16T00:50:57.398Z,102063.25
2023-05-16T00:53:28.185Z,102065.09
2023-05-16T00:58:52.787Z,102061.59
2023-05-16T01:04:22.482Z,102060.09
2023-05-16T01:07:19.112Z,102063.28
2023-05-16T01:21:59.702Z,102065.09
2023-05-16T01:27:50.251Z,102070.47
2023-05-16T01:30:58.000Z,102066.53
2023-05-16T01:33:53.517Z,102066.44
2023-05-16T01:36:57.518Z,102069.59
2023-05-16T01:40:03.592Z,102064.31
2023-05-16T01:42:38.813Z,102066.25
2023-05-16T01:45:30.535Z,102068.53
2023-05-16T01:48:28.266Z,102069.31
2023-05-16T01:50:59.065Z,102062.09
2023-05-16T02:08:17.249Z,102077.91
2023-05-16T02:19:30.412Z,102084.38
2023-05-16T02:30:10.184Z,102091.97
2023-05-16T02:32:53.832Z,102084.19
2023-05-16T02:38:21.179Z,102091.78
2023-05-16T02:40:49.105Z,102095.75
2023-05-16T02:43:48.848Z,102096.97
2023-05-16T02:46:54.673Z,102096.78
2023-05-16T02:55:54.936Z,102106.44
2023-05-16T02:58:22.905Z,102102.94
2023-05-16T03:06:49.249Z,102113.00
2023-05-16T03:13:37.875Z,102108.66
2023-05-16T03:16:22.954Z,102108.81
2023-05-16T03:21:38.186Z,102120.47
2023-05-16T03:31:13.910Z,102126.84
2023-05-16T03:33:47.570Z,102126.06
2023-05-16T03:36:44.958Z,102124.13
2023-05-16T03:52:23.130Z,102133.66
2023-05-16T03:54:52.382Z,102135.59
2023-05-16T04:00:41.943Z,102136.72
2023-05-16T04:06:55.312Z,102137.84
2023-05-16T04:08:57.132Z,102149.06
2023-05-16T04:14:34.956Z,102149.75
2023-05-16T04:18:54.360Z,102149.41
2023-05-16T04:20:28.327Z,102152.13
2023-05-16T04:27:17.225Z,102144.97
2023-05-16T04:29:00.301Z,102158.13
2023-05-16T04:38:14.946Z,102163.34
2023-05-16T04:48:34.780Z,102177.72
2023-05-16T04:51:31.807Z,102177.84
2023-05-16T04:57:37.419Z,102181.53
2023-05-16T05:00:42.928Z,102188.66
2023-05-16T05:15:02.609Z,102184.78
2023-05-16T05:27:09.137Z,102197.28
2023-05-16T05:29:36.125Z,102194.69
2023-05-16T05:32:29.729Z,102207.25
2023-05-16T05:39:01.487Z,102211.75
2023-05-16T05:45:12.468Z,102219.53
2023-05-16T05:47:40.806Z,102212.00
2023-05-16T05:50:24.621Z,102212.97
2023-05-16T05:53:39.547Z,102212.78
2023-05-16T05:56:23.144Z,102217.81
2023-05-16T05:58:52.359Z,102217.31
2023-05-16T06:01:47.631Z,102224.16
2023-05-16T06:04:14.361Z,102229.53
2023-05-16T06:06:40.925Z,102234.69
2023-05-16T06:09:07.623Z,102231.53
2023-05-16T06:11:34.311Z,102240.69
2023-05-16T06:14:00.987Z,102237.47
2023-05-16T06:16:45.514Z,102236.94
2023-05-16T06:19:15.977Z,102242.44
2023-05-16T06:21:43.758Z,102253.88
2023-05-16T06:24:12.203Z,102253.25
2023-05-16T06:26:38.777Z,102260.41
2023-05-16T06:29:05.290Z,102261.81
2023-05-16T06:31:32.297Z,102260.44
2023-05-16T06:34:02.962Z,102263.69
2023-05-16T06:37:00.086Z,102258.66
2023-05-16T06:39:47.425Z,102265.78
2023-05-16T06:42:14.255Z,102255.78
2023-05-16T06:45:09.688Z,102252.97
2023-05-16T06:47:58.544Z,102261.00
2023-05-16T06:56:49.006Z,102264.41
2023-05-16T06:59:19.916Z,102260.97
2023-05-16T07:01:46.851Z,102260.09
2023-05-16T07:04:41.483Z,102266.91
2023-05-16T07:16:13.816Z,102257.88
2023-05-16T07:18:43.869Z,102262.66
2023-05-16T07:21:11.492Z,102269.59
2023-05-16T07:24:18.926Z,102263.38
2023-05-16T07:26:44.862Z,102274.03
2023-05-16T07:37:54.459Z,102271.44
2023-05-16T07:43:00.261Z,102268.03
2023-05-16T07:46:04.857Z,102274.78
2023-05-16T07:48:41.570Z,102272.19
2023-05-16T07:51:12.063Z,102276.09
2023-05-16T07:53:38.748Z,102274.38
2023-05-16T07:56:08.545Z,102283.16
2023-05-16T07:58:35.571Z,102281.22
2023-05-16T08:04:12.652Z,102301.53
2023-05-16T08:06:39.383Z,102294.22
2023-05-16T08:14:39.006Z,102300.44
2023-05-16T08:17:17.794Z,102298.00
2023-05-16T08:19:44.504Z,102292.13
2023-05-16T08:22:13.664Z,102281.47
2023-05-16T08:24:43.172Z,102294.03
2023-05-16T08:27:15.100Z,102288.22
2023-05-16T08:29:49.722Z,102285.81
2023-05-16T08:32:17.636Z,102283.09
2023-05-16T08:35:06.641Z,102288.63
2023-05-16T08:37:55.845Z,102287.44
2023-05-16T08:41:24.064Z,102285.69
2023-05-16T08:44:13.669Z,102288.13
2023-05-16T08:46:53.991Z,102292.25
2023-05-16T08:49:21.448Z,102295.34
2023-05-16T08:51:49.314Z,102287.50
2023-05-16T08:54:47.029Z,102276.00
2023-05-16T08:57:14.627Z,102282.44
2023-05-16T08:59:43.749Z,102277.16
2023-05-16T09:02:14.345Z,102285.56
2023-05-16T09:04:41.700Z,102284.97
2023-05-16T09:07:30.414Z,102291.63
2023-05-16T09:09:57.558Z,102283.19
2023-05-16T09:15:40.064Z,102298.13
2023-05-16T09:18:42.913Z,102294.53
2023-05-16T09:21:29.697Z,102298.25
2023-05-16T09:27:15.413Z,102293.69
2023-05-16T09:29:53.650Z,102291.84
2023-05-16T09:38:20.234Z,102292.84
2023-05-16T09:40:50.900Z,102291.06
2023-05-16T09:43:18.557Z,102294.28
2023-05-16T09:45:57.187Z,102297.25
2023-05-16T09:51:22.041Z,102302.66
2023-05-16T09:54:20.153Z,102311.97
2023-05-16T09:56:59.433Z,102294.09
2023-05-16T09:59:38.806Z,102290.84
2023-05-16T10:02:35.797Z,102293.03
2023-05-16T10:05:06.161Z,102291.63
2023-05-16T10:07:58.400Z,102298.00
2023-05-16T10:10:44.964Z,102296.22
2023-05-16T10:13:13.028Z,102307.47
2023-05-16T10:15:39.795Z,102297.88
2023-05-16T10:18:11.829Z,102311.75
2023-05-16T10:20:49.077Z,102294.72
2023-05-16T10:23:43.926Z,102302.16
2023-05-16T10:26:59.837Z,102309.34
2023-05-16T10:32:56.406Z,102311.41
2023-05-16T10:35:23.488Z,102307.41
2023-05-16T10:37:51.679Z,102307.69
2023-05-16T10:40:24.309Z,102303.88
2023-05-16T10:43:23.870Z,102305.78
2023-05-16T10:46:14.023Z,102297.66
2023-05-16T10:48:45.151Z,102298.84
2023-05-16T10:51:24.059Z,102308.22
2023-05-16T10:53:53.400Z,102303.66
2023-05-16T10:56:30.282Z,102300.97
2023-05-16T10:58:57.109Z,102304.09
2023-05-16T11:04:13.403Z,102296.16
2023-05-16T11:06:41.108Z,102303.63
2023-05-16T11:09:27.650Z,102299.16
2023-05-16T11:11:58.705Z,102298.72
2023-05-16T11:14:37.441Z,102297.56
2023-05-16T11:17:15.901Z,102312.88
2023-05-16T11:19:47.079Z,102310.53
2023-05-16T11:22:24.209Z,102303.41
2023-05-16T11:25:02.939Z,102301.81
2023-05-16T11:27:31.622Z,102304.09
2023-05-16T11:30:04.025Z,102305.56
2023-05-16T11:32:34.008Z,102316.75
2023-05-16T11:35:00.888Z,102322.53
2023-05-16T11:37:29.449Z,102320.88
2023-05-16T11:40:03.167Z,102319.97
2023-05-16T11:42:32.921Z,102325.84
2023-05-16T11:45:07.334Z,102320.75
2023-05-16T11:47:34.526Z,102336.78
2023-05-16T11:50:02.554Z,102337.84
2023-05-16T11:52:29.113Z,102326.88
2023-05-16T11:54:57.485Z,102324.84
2023-05-16T11:57:25.144Z,102334.59
2023-05-16T11:59:53.236Z,102324.72
2023-05-16T12:02:20.061Z,102329.34
2023-05-16T12:04:50.771Z,102327.78
2023-05-16T12:07:17.511Z,102327.44
2023-05-16T12:09:53.578Z,102334.13
2023-05-16T12:12:22.362Z,102330.75
2023-05-16T12:14:49.198Z,102328.22
2023-05-16T12:17:16.225Z,102326.47
2023-05-16T12:19:42.908Z,102322.28
2023-05-16T12:22:19.983Z,102321.84
2023-05-16T12:24:46.579Z,102332.63
2023-05-16T12:27:14.043Z,102329.09
2023-05-16T12:29:40.732Z,102330.22
2023-05-16T12:32:08.650Z,102328.63
2023-05-16T12:34:35.413Z,102325.09
2023-05-16T12:37:02.136Z,102335.31
2023-05-16T12:39:37.189Z,102341.16
2023-05-16T12:42:07.647Z,102336.56
2023-05-16T12:44:40.027Z,102323.19
2023-05-16T12:47:13.548Z,102334.09
2023-05-16T12:49:47.095Z,102331.06
2023-05-16T12:52:20.639Z,102331.78
2023-05-16T12:54:48.463Z,102327.44
2023-05-16T12:57:16.135Z,102330.03
2023-05-16T12:59:42.652Z,102341.75
2023-05-16T13:02:10.136Z,102335.53
2023-05-16T13:04:37.923Z,102347.31
2023-05-16T13:07:04.815Z,102348.03
2023-05-16T13:09:33.108Z,102336.66
2023-05-16T13:12:00.247Z,102344.16
2023-05-16T13:14:27.151Z,102337.50
2023-05-16T13:16:53.825Z,102341.91
2023-05-16T13:19:22.227Z,102345.53
2023-05-16T13:21:48.826Z,102340.00
2023-05-16T13:24:19.516Z,102342.66
2023-05-16T13:26:47.101Z,102341.47
2023-05-16T13:29:14.908Z,102338.31
2023-05-16T13:31:42.078Z,102347.69
2023-05-16T13:34:10.745Z,102352.00
2023-05-16T13:36:52.261Z,102340.22
2023-05-16T13:39:20.979Z,102339.75
2023-05-16T13:41:49.541Z,102343.16
2023-05-16T13:44:16.872Z,102347.88
2023-05-16T13:46:43.776Z,102339.38
2023-05-16T13:49:10.525Z,102335.59
2023-05-16T13:51:38.073Z,102336.78
2023-05-16T13:54:04.644Z,102335.59
2023-05-16T13:56:32.168Z,102341.06
2023-05-16T13:59:05.754Z,102341.38
2023-05-16T14:01:32.735Z,102341.38
2023-05-16T14:03:59.658Z,102337.09
2023-05-16T14:06:26.492Z,102335.88
2023-05-16T14:08:54.105Z,102342.25
2023-05-16T14:11:28.421Z,102342.19
2023-05-16T14:13:56.401Z,102347.97
2023-05-16T14:16:23.283Z,102343.66
2023-05-16T14:18:50.052Z,102346.44
2023-05-16T14:21:16.754Z,102344.09
2023-05-16T14:23:43.359Z,102349.97
2023-05-16T14:26:10.021Z,102341.38
2023-05-16T14:28:36.554Z,102344.56
2023-05-16T14:31:07.213Z,102346.53
2023-05-16T14:33:33.723Z,102343.38
2023-05-16T14:36:00.469Z,102347.66
2023-05-16T14:38:28.073Z,102346.84
2023-05-16T14:40:54.660Z,102343.75
2023-05-16T14:43:21.380Z,102347.13
2023-05-16T14:45:47.899Z,102336.44
2023-05-16T14:48:14.674Z,102342.75
2023-05-16T14:50:42.468Z,102343.72
2023-05-16T14:53:09.272Z,102341.41
2023-05-16T14:55:37.253Z,102345.28
2023-05-16T14:58:04.978Z,102349.34
2023-05-16T15:00:32.988Z,102347.84
2023-05-16T15:02:59.577Z,102344.44
2023-05-16T15:05:26.284Z,102343.69
2023-05-16T15:07:52.844Z,102344.91
2023-05-16T15:10:19.626Z,102344.16
2023-05-16T15:12:46.241Z,102340.63
2023-05-16T15:15:15.570Z,102349.28
2023-05-16T15:17:43.064Z,102347.34
2023-05-16T15:20:11.143Z,102344.22
2023-05-16T15:22:39.904Z,102348.47
2023-05-16T15:25:08.368Z,102359.41
2023-05-16T15:27:35.093Z,102357.06
2023-05-16T15:30:01.715Z,102350.84
2023-05-16T15:32:29.278Z,102354.34
2023-05-16T15:34:56.011Z,102351.31
2023-05-16T15:37:22.907Z,102352.44
2023-05-16T15:39:50.381Z,102357.06
2023-05-16T15:42:19.020Z,102357.09
2023-05-16T15:44:45.796Z,102362.22
2023-05-16T15:47:12.367Z,102356.78
2023-05-16T15:49:39.354Z,102363.06
2023-05-16T15:52:06.210Z,102368.53
2023-05-16T15:54:32.889Z,102371.56
2023-05-16T15:56:59.477Z,102370.34
2023-05-16T15:59:25.995Z,102374.66
2023-05-16T16:01:54.811Z,102369.94
2023-05-16T16:04:23.840Z,102363.19
2023-05-16T16:06:50.798Z,102376.81
2023-05-16T16:09:17.555Z,102377.88
2023-05-16T16:11:45.281Z,102377.03
2023-05-16T16:14:12.356Z,102378.63
2023-05-16T16:16:41.684Z,102380.16
2023-05-16T16:19:09.335Z,102379.75
2023-05-16T16:21:36.050Z,102380.59
2023-05-16T16:24:02.831Z,102385.38
2023-05-16T16:26:30.399Z,102384.56
2023-05-16T16:28:57.071Z,102382.56
2023-05-16T16:31:25.259Z,102380.59
2023-05-16T16:33:52.101Z,102378.97
2023-05-16T16:36:18.796Z,102379.66
2023-05-16T16:38:45.505Z,102382.66
2023-05-16T16:41:15.089Z,102378.59
2023-05-16T16:43:42.171Z,102377.81
2023-05-16T16:46:09.987Z,102381.66
2023-05-16T16:48:36.850Z,102385.91
2023-05-16T16:51:04.728Z,102391.00
2023-05-16T16:53:32.328Z,102394.09
2023-05-16T16:55:58.928Z,102393.47
2023-05-16T16:58:26.476Z,102395.25
2023-05-16T17:00:53.053Z,102397.59
2023-05-16T17:03:21.570Z,102394.44
2023-05-16T17:05:49.349Z,102397.16
2023-05-16T17:08:16.025Z,102395.22
2023-05-16T17:10:43.543Z,102406.28
2023-05-16T17:13:10.355Z,102399.78
2023-05-16T17:15:37.824Z,102404.09
2023-05-16T17:18:12.527Z,102408.47
2023-05-16T17:20:40.359Z,102406.19
2023-05-16T17:23:06.974Z,102414.38
2023-05-16T17:25:33.690Z,102411.97
2023-05-16T17:28:00.192Z,102419.41
2023-05-16T17:30:26.814Z,102427.38
2023-05-16T17:32:59.178Z,102433.72
2023-05-16T17:35:26.265Z,102426.31
2023-05-16T17:37:52.941Z,102429.41
2023-05-16T17:40:19.570Z,102427.84
2023-05-16T17:42:46.463Z,102427.03
2023-05-16T17:45:15.803Z,102431.72
2023-05-16T17:47:42.756Z,102434.00
2023-05-16T17:50:10.487Z,102426.16
2023-05-16T17:52:40.713Z,102424.28
2023-05-16T17:55:09.160Z,102433.34
2023-05-16T17:57:36.095Z,102430.25
2023-05-16T18:00:05.420Z,102429.06
2023-05-16T18:02:34.889Z,102440.00
2023-05-16T18:05:03.619Z,102443.03
2023-05-16T18:12:47.126Z,102455.63
2023-05-16T18:15:14.761Z,102457.94
2023-05-16T18:17:41.368Z,102458.63
2023-05-16T18:20:10.532Z,102464.84
2023-05-16T18:22:38.282Z,102459.38
2023-05-16T18:25:05.925Z,102467.22
2023-05-16T18:27:34.850Z,102460.16
2023-05-16T18:30:01.751Z,102464.84
2023-05-16T18:32:28.753Z,102466.31
2023-05-16T18:34:55.570Z,102464.31
2023-05-16T18:37:22.134Z,102466.94
2023-05-16T18:39:50.072Z,102477.91
2023-05-16T18:42:17.866Z,102474.91
2023-05-16T18:44:45.705Z,102473.22
2023-05-16T18:47:15.520Z,102473.00
2023-05-16T18:49:43.317Z,102467.47
2023-05-16T18:52:11.369Z,102476.47
2023-05-16T18:54:39.933Z,102472.50
2023-05-16T18:57:06.843Z,102475.88
2023-05-16T18:59:34.216Z,102476.59
2023-05-16T19:02:00.940Z,102473.38
2023-05-16T19:04:27.726Z,102475.59
2023-05-16T19:06:56.274Z,102478.63
2023-05-16T19:09:24.223Z,102485.16
2023-05-16T19:11:52.054Z,102485.44
2023-05-16T19:14:18.710Z,102488.53
2023-05-16T19:16:45.309Z,102486.50
2023-05-16T19:19:11.959Z,102494.66
2023-05-16T19:21:40.270Z,102496.94
2023-05-16T19:24:07.517Z,102497.19
2023-05-16T19:26:34.113Z,102500.13
2023-05-16T19:29:00.786Z,102499.94
2023-05-16T19:31:27.447Z,102503.41
2023-05-16T19:33:54.129Z,102500.13
2023-05-16T19:36:21.249Z,102506.66
2023-05-16T19:38:47.866Z,102514.78
2023-05-16T19:41:14.456Z,102520.53
2023-05-16T19:43:41.114Z,102510.72
2023-05-16T19:46:07.761Z,102510.72
2023-05-16T19:48:35.256Z,102513.75
2023-05-16T19:51:02.148Z,102512.84
2023-05-16T19:53:28.794Z,102515.13
2023-05-16T19:55:55.561Z,102514.25
2023-05-16T19:58:22.375Z,102521.22
2023-05-16T20:00:50.777Z,102520.44
2023-05-16T20:03:17.498Z,102515.31
2023-05-16T20:05:44.277Z,102516.03
2023-05-16T20:08:16.006Z,102517.88
2023-05-16T20:10:42.665Z,102520.16
2023-05-16T20:13:10.339Z,102519.38
2023-05-16T20:15:36.930Z,102527.56
2023-05-16T20:18:03.763Z,102522.00
2023-05-16T20:20:30.468Z,102514.16
2023-05-16T20:22:57.113Z,102520.75
2023-05-16T20:25:23.756Z,102521.94
2023-05-16T20:27:50.299Z,102523.84
2023-05-16T20:30:16.936Z,102528.06
2023-05-16T20:32:43.612Z,102528.06
2023-05-16T20:35:11.263Z,102533.06
2023-05-16T20:37:38.162Z,102539.69
2023-05-16T20:40:06.231Z,102546.63
2023-05-16T20:42:32.920Z,102544.59
2023-05-16T20:44:59.517Z,102542.91
2023-05-16T20:47:26.191Z,102541.34
2023-05-16T20:49:52.812Z,102549.41
2023-05-16T20:52:21.891Z,102546.63
2023-05-16T20:54:48.708Z,102549.22
2023-05-16T20:57:16.158Z,102549.13
2023-05-16T20:59:42.851Z,102551.78
2023-05-16T21:02:10.479Z,102553.25
2023-05-16T21:04:38.119Z,102552.81
2023-05-16T21:07:06.771Z,102556.13
2023-05-16T21:09:35.180Z,102554.91
2023-05-16T21:12:02.019Z,102557.19
2023-05-16T21:14:28.508Z,102558.63
2023-05-16T21:16:55.042Z,102562.06
2023-05-16T21:19:21.760Z,102560.81
2023-05-16T21:21:48.383Z,102555.38
2023-05-16T21:24:14.966Z,102552.97
2023-05-16T21:26:41.468Z,102557.63
2023-05-16T21:29:08.016Z,102559.09
2023-05-16T21:31:34.583Z,102561.38
2023-05-16T21:34:01.124Z,102561.28
2023-05-16T21:36:27.688Z,102561.63
2023-05-16T21:38:54.289Z,102564.25
2023-05-16T21:41:22.364Z,102561.84
2023-05-16T21:43:48.940Z,102564.94
2023-05-16T21:46:15.709Z,102573.34
2023-05-16T21:48:42.313Z,102572.09
2023-05-16T21:51:10.012Z,102578.03
2023-05-16T21:53:38.270Z,102574.84
2023-05-16T21:56:06.275Z,102574.03
2023-05-16T21:58:32.820Z,102576.75
2023-05-16T22:00:59.284Z,102582.91
2023-05-16T22:03:26.074Z,102576.91
2023-05-16T22:05:52.742Z,102579.97
2023-05-16T22:08:19.405Z,102582.25
2023-05-16T22:10:46.058Z,102579.50
2023-05-16T22:13:12.624Z,102582.69
2023-05-16T22:15:40.701Z,102584.84
2023-05-16T22:18:07.542Z,102584.38
2023-05-16T22:20:34.124Z,102580.78
2023-05-16T22:23:04.974Z,102580.31
2023-05-16T22:25:31.623Z,102575.22
2023-05-16T22:27:58.170Z,102571.69
2023-05-16T22:30:24.769Z,102591.41
2023-05-16T22:32:51.363Z,102583.63
2023-05-16T22:35:18.137Z,102591.31
2023-05-16T22:37:44.775Z,102588.03
2023-05-16T22:40:11.592Z,102581.22
2023-05-16T22:42:38.206Z,102591.53
2023-05-16T22:45:05.309Z,102588.34
2023-05-16T22:47:32.009Z,102599.69
2023-05-16T22:49:58.644Z,102591.06
2023-05-16T22:52:25.478Z,102593.00
2023-05-16T22:54:52.046Z,102600.72
2023-05-16T22:57:18.575Z,102599.94
2023-05-16T22:59:45.179Z,102602.66
2023-05-16T23:02:11.657Z,102593.91
2023-05-16T23:04:38.342Z,102589.94
2023-05-16T23:07:05.495Z,102592.66
2023-05-16T23:09:32.096Z,102593.66
2023-05-16T23:11:59.099Z,102597.50
2023-05-16T23:14:26.006Z,102590.81
2023-05-16T23:16:52.550Z,102590.03
2023-05-16T23:19:19.235Z,102597.72
2023-05-16T23:21:45.885Z,102596.16
2023-05-16T23:24:12.410Z,102596.81
2023-05-16T23:26:39.003Z,102599.06
2023-05-16T23:29:06.187Z,102607.13
2023-05-16T23:31:32.881Z,102608.25
2023-05-16T23:34:00.578Z,102610.84
2023-05-16T23:36:27.345Z,102607.66
2023-05-16T23:38:53.865Z,102610.72
2023-05-16T23:41:20.452Z,102604.34
2023-05-16T23:43:47.821Z,102611.25
2023-05-16T23:46:14.323Z,102616.13
2023-05-16T23:48:40.909Z,102606.38
2023-05-16T23:51:07.758Z,102610.22
2023-05-16T23:53:35.539Z,102619.03
2023-05-16T23:56:02.253Z,102622.91
2023-05-16T23:58:29.020Z,102613.59
